Terminal Aerodrome Forecast
Issued by NWS

Home | Current Version | Previous Version | Text Only | Print | Product List | Glossary On
Versions: 1 2 3 4 5 6 7 8 9 10 11 12 13 14 15 16
000
FTUS46 KSEW 212300 RRA
TAFPAE
TAF
KPAE 212347Z 2200/2224 16015G24KT 4SM -RA BR BKN030 OVC040
     FM220300 18014G21KT P6SM -SHRA SCT015 BKN025
     FM220600 29007KT 6SM -SHRA BR SCT010 OVC018
     FM221100 22006KT P6SM -SHRA SCT015 OVC025=

USA.gov is the U.S. government's official web portal to all federal, state and local government web resources and services.